Time;durP1;ratioP1;P1;durP2;ratioP2;P2;SDS_P1;SDS_P2;PMS_P1;PMS_P2;Temp;Humidity;BMP_temperature;BMP_pressure;BME280_temperature;BME280_humidity;BME280_pressure;Samples;Min_cycle;Max_cycle;Signal;HPM_P1;HPM_P2
2023/06/06 00:01:19;;;;;;;5.60;4.00;;;13.50;99.90;;;;;;6148908;23;20014;-63
2023/06/06 00:03:45;;;;;;;5.72;3.97;;;13.50;99.90;;;;;;6146027;23;20485;-64
2023/06/06 00:06:12;;;;;;;5.03;4.43;;;13.50;99.90;;;;;;6150060;23;20009;-64
2023/06/06 00:08:38;;;;;;;4.75;3.75;;;13.40;99.90;;;;;;6150930;23;20080;-63
2023/06/06 00:11:03;;;;;;;6.03;4.07;;;13.40;99.90;;;;;;6149240;23;20450;-63
2023/06/06 00:13:31;;;;;;;4.97;4.00;;;13.30;99.90;;;;;;6150608;23;20374;-63
2023/06/06 00:15:58;;;;;;;5.22;3.67;;;13.20;99.90;;;;;;6148838;23;20013;-64
2023/06/06 00:18:26;;;;;;;5.20;3.92;;;13.20;99.90;;;;;;6150254;23;20005;-64
2023/06/06 00:20:53;;;;;;;6.53;3.83;;;13.20;99.90;;;;;;6151165;23;20008;-63
2023/06/06 00:23:20;;;;;;;5.10;3.65;;;13.10;99.90;;;;;;6149067;23;20041;-64
2023/06/06 00:25:46;;;;;;;7.22;4.20;;;13.00;99.90;;;;;;6150392;23;20339;-64
2023/06/06 00:28:13;;;;;;;5.15;3.80;;;13.00;99.90;;;;;;6150317;23;20001;-63
2023/06/06 00:30:38;;;;;;;6.53;4.65;;;12.90;99.90;;;;;;6150171;23;20148;-64
2023/06/06 00:33:04;;;;;;;5.38;4.60;;;12.90;99.90;;;;;;6150867;23;20044;-64
2023/06/06 00:35:29;;;;;;;4.47;4.07;;;12.90;99.90;;;;;;6149058;23;20013;-64
2023/06/06 00:37:55;;;;;;;6.07;4.45;;;12.80;99.90;;;;;;6149121;23;20009;-64
2023/06/06 00:40:21;;;;;;;4.35;3.83;;;12.90;99.90;;;;;;6148906;23;20453;-64
2023/06/06 00:42:46;;;;;;;7.00;4.00;;;12.80;99.90;;;;;;6150667;23;20009;-64
2023/06/06 00:45:12;;;;;;;6.20;4.65;;;12.80;99.90;;;;;;6150431;23;20001;-64
2023/06/06 00:47:38;;;;;;;4.95;4.18;;;12.80;99.90;;;;;;6150076;23;20044;-63
2023/06/06 00:50:05;;;;;;;7.88;4.60;;;12.70;99.90;;;;;;6150682;23;20435;-64
2023/06/06 00:52:31;;;;;;;4.93;4.07;;;12.70;99.90;;;;;;6150197;23;20009;-64
2023/06/06 00:54:57;;;;;;;4.80;4.10;;;12.70;99.90;;;;;;6149752;23;20013;-64
2023/06/06 00:57:24;;;;;;;5.13;4.28;;;12.70;99.90;;;;;;6149789;23;20297;-64
2023/06/06 00:59:50;;;;;;;5.53;3.85;;;12.60;99.90;;;;;;6141154;23;20060;-64
2023/06/06 01:02:19;;;;;;;6.70;4.47;;;12.60;99.90;;;;;;6144395;23;20013;-64
2023/06/06 01:04:45;;;;;;;5.68;4.78;;;12.50;99.90;;;;;;6145682;23;20013;-64
2023/06/06 01:07:12;;;;;;;6.57;5.20;;;12.50;99.90;;;;;;6146094;23;20512;-64
2023/06/06 01:09:41;;;;;;;6.00;4.97;;;12.40;99.90;;;;;;6145452;23;20630;-63
2023/06/06 01:12:35;;;;;;;5.18;3.90;;;12.40;99.90;;;;;;6147907;23;20464;-63
2023/06/06 01:15:11;;;;;;;9.18;5.10;;;12.30;99.90;;;;;;6145047;23;20009;-63
2023/06/06 01:17:38;;;;;;;;;;;12.30;99.90;;;;;;6146873;23;20005;-63
2023/06/06 01:20:06;;;;;;;6.03;4.38;;;12.30;99.90;;;;;;6147418;23;19901;-64
2023/06/06 01:22:33;;;;;;;6.55;4.22;;;12.30;99.90;;;;;;6146611;23;20549;-64
2023/06/06 01:24:58;;;;;;;6.45;4.68;;;12.30;99.90;;;;;;6147495;23;20334;-63
2023/06/06 01:27:27;;;;;;;8.68;5.20;;;12.30;99.90;;;;;;6147488;23;20005;-64
2023/06/06 01:29:52;;;;;;;7.30;4.93;;;12.30;99.90;;;;;;6147536;23;19998;-63
2023/06/06 01:32:26;;;;;;;5.90;5.18;;;12.20;99.90;;;;;;6146587;23;20100;-62
2023/06/06 01:35:02;;;;;;;7.78;5.20;;;12.20;99.90;;;;;;6146910;23;20390;-64
2023/06/06 01:37:48;;;;;;;6.97;5.13;;;12.20;99.90;;;;;;6147827;23;20025;-64
2023/06/06 01:40:18;;;;;;;7.25;5.07;;;12.20;99.90;;;;;;6146992;23;20008;-64
2023/06/06 01:42:46;;;;;;;5.82;4.93;;;12.20;99.90;;;;;;6147275;23;20006;-64
2023/06/06 01:45:14;;;;;;;7.40;5.25;;;12.10;99.90;;;;;;6146781;23;20005;-63
2023/06/06 01:47:41;;;;;;;6.40;5.53;;;12.10;99.90;;;;;;6146021;23;20009;-64
2023/06/06 01:50:08;;;;;;;8.93;5.97;;;12.10;99.90;;;;;;6146968;23;20023;-64
2023/06/06 01:52:37;;;;;;;9.65;5.53;;;12.00;99.90;;;;;;6146263;23;20064;-64
2023/06/06 01:55:04;;;;;;;7.65;5.50;;;12.00;99.90;;;;;;6146898;23;20056;-64
2023/06/06 01:57:30;;;;;;;5.90;5.30;;;11.90;99.90;;;;;;6144894;23;20012;-64
2023/06/06 01:59:55;;;;;;;7.97;5.72;;;11.90;99.90;;;;;;6147397;23;20005;-64
2023/06/06 02:02:21;;;;;;;6.60;5.25;;;11.90;99.90;;;;;;6146521;23;20020;-64
2023/06/06 02:04:48;;;;;;;7.18;5.40;;;11.90;99.90;;;;;;6145549;23;20032;-64
2023/06/06 02:07:15;;;;;;;6.22;4.90;;;11.90;99.90;;;;;;6145138;23;20013;-64
2023/06/06 02:09:42;;;;;;;8.52;6.30;;;11.90;99.90;;;;;;6146882;23;20033;-64
2023/06/06 02:12:08;;;;;;;6.57;5.75;;;11.90;99.90;;;;;;6147137;23;20059;-64
2023/06/06 02:14:34;;;;;;;9.07;6.32;;;11.80;99.90;;;;;;6146801;23;20005;-64
2023/06/06 02:17:00;;;;;;;6.93;5.07;;;11.70;99.90;;;;;;6146827;23;20006;-64
2023/06/06 02:19:26;;;;;;;7.40;5.20;;;11.70;99.90;;;;;;6147385;23;20009;-64
2023/06/06 02:21:51;;;;;;;6.88;5.25;;;11.70;99.90;;;;;;6145648;23;20136;-64
2023/06/06 02:24:17;;;;;;;6.70;5.93;;;11.70;99.90;;;;;;6147141;23;20014;-64
2023/06/06 02:26:44;;;;;;;8.75;5.60;;;11.70;99.90;;;;;;6147063;23;20006;-64
2023/06/06 02:29:10;;;;;;;5.25;4.78;;;11.70;99.90;;;;;;6147535;23;20012;-64
2023/06/06 02:31:39;;;;;;;7.70;5.80;;;11.60;99.90;;;;;;6146315;23;20026;-64
2023/06/06 02:34:05;;;;;;;7.13;5.13;;;11.70;99.90;;;;;;6146697;23;20006;-63
2023/06/06 02:36:31;;;;;;;8.15;6.05;;;11.70;99.90;;;;;;6146666;23;20076;-64
2023/06/06 02:38:57;;;;;;;9.35;6.35;;;11.60;99.90;;;;;;6146660;23;20017;-64
2023/06/06 02:41:23;;;;;;;7.90;6.40;;;11.60;99.90;;;;;;6147382;23;20009;-64
2023/06/06 02:43:49;;;;;;;7.68;6.47;;;11.50;99.90;;;;;;6146575;23;20009;-64
2023/06/06 02:46:15;;;;;;;9.32;6.85;;;11.60;99.90;;;;;;6147133;23;20040;-64
2023/06/06 02:48:47;;;;;;;8.95;6.53;;;11.60;99.90;;;;;;6147023;23;20016;-64
2023/06/06 02:51:13;;;;;;;8.43;6.65;;;11.60;99.90;;;;;;6144268;23;20072;-64
2023/06/06 02:53:40;;;;;;;11.57;6.93;;;11.50;99.90;;;;;;6146335;23;20481;-64
2023/06/06 02:56:06;;;;;;;9.95;6.20;;;11.50;99.90;;;;;;6145717;23;20001;-64
2023/06/06 02:58:32;;;;;;;8.45;6.65;;;11.50;99.90;;;;;;6145888;23;20016;-64
2023/06/06 03:01:00;;;;;;;11.20;7.40;;;11.50;99.90;;;;;;6143138;23;20280;-65
2023/06/06 03:03:26;;;;;;;9.20;6.40;;;11.40;99.90;;;;;;6146382;23;20256;-64
2023/06/06 03:05:53;;;;;;;9.30;6.93;;;11.40;99.90;;;;;;6141929;23;19997;-64
2023/06/06 03:08:19;;;;;;;8.57;6.47;;;11.40;99.90;;;;;;6140301;23;20024;-64
2023/06/06 03:10:48;;;;;;;11.65;7.85;;;11.40;99.90;;;;;;6143363;23;20017;-64
2023/06/06 03:13:15;;;;;;;13.52;7.90;;;11.40;99.90;;;;;;6144897;23;20032;-65
2023/06/06 03:15:44;;;;;;;9.52;7.32;;;11.40;99.90;;;;;;6143669;23;20005;-64
2023/06/06 03:18:11;;;;;;;11.88;7.38;;;11.40;99.90;;;;;;6146416;23;20005;-64
2023/06/06 03:20:40;;;;;;;11.70;7.40;;;11.40;99.90;;;;;;6146959;23;20008;-66
2023/06/06 03:23:06;;;;;;;11.13;7.70;;;11.40;99.90;;;;;;6142936;23;20010;-63
2023/06/06 03:25:33;;;;;;;11.38;8.18;;;11.40;99.90;;;;;;6146828;23;20044;-64
2023/06/06 03:27:59;;;;;;;10.13;6.78;;;11.40;99.90;;;;;;6147087;23;20085;-64
2023/06/06 03:30:25;;;;;;;10.00;7.32;;;11.40;99.90;;;;;;6144343;23;20025;-64
2023/06/06 03:32:51;;;;;;;10.02;7.72;;;11.50;99.90;;;;;;6147454;23;20002;-64
2023/06/06 03:35:18;;;;;;;7.70;6.68;;;11.50;99.90;;;;;;6145776;23;20017;-64
2023/06/06 03:37:44;;;;;;;11.32;8.57;;;11.50;99.90;;;;;;6146954;23;20075;-65
2023/06/06 03:40:11;;;;;;;10.35;7.20;;;11.50;99.90;;;;;;6147701;23;20065;-64
2023/06/06 03:42:36;;;;;;;9.10;7.18;;;11.50;99.90;;;;;;6146367;23;20002;-64
2023/06/06 03:45:03;;;;;;;14.15;8.05;;;11.50;99.90;;;;;;6146964;23;20239;-64
2023/06/06 03:47:29;;;;;;;11.70;7.68;;;11.50;99.90;;;;;;6147621;23;20064;-64
2023/06/06 03:49:55;;;;;;;13.52;7.55;;;11.50;99.90;;;;;;6146680;23;20382;-64
2023/06/06 03:52:20;;;;;;;9.82;7.15;;;11.50;99.90;;;;;;6147322;23;20033;-64
2023/06/06 03:54:46;;;;;;;8.63;6.22;;;11.50;99.90;;;;;;6146708;23;20509;-64
2023/06/06 03:57:11;;;;;;;9.20;6.43;;;11.50;99.90;;;;;;6147334;23;20013;-64
2023/06/06 03:59:37;;;;;;;10.10;6.97;;;11.60;99.90;;;;;;6145277;23;20144;-65
2023/06/06 04:02:03;;;;;;;7.72;6.07;;;11.60;99.90;;;;;;6146402;23;20081;-64
2023/06/06 04:04:30;;;;;;;10.20;6.72;;;11.60;99.90;;;;;;6146812;23;20441;-65
2023/06/06 04:06:58;;;;;;;12.05;7.93;;;11.60;99.90;;;;;;6146740;23;20009;-64
2023/06/06 04:09:24;;;;;;;12.07;7.55;;;11.70;99.90;;;;;;6147088;23;20149;-64
2023/06/06 04:11:49;;;;;;;9.90;7.07;;;11.70;99.90;;;;;;6146571;23;20450;-64
2023/06/06 04:14:15;;;;;;;10.38;7.28;;;11.70;99.90;;;;;;6145013;23;20005;-64
2023/06/06 04:16:41;;;;;;;9.10;7.05;;;11.70;99.90;;;;;;6145556;23;20028;-64
2023/06/06 04:19:07;;;;;;;9.05;6.25;;;11.80;99.90;;;;;;6146672;23;20356;-64
2023/06/06 04:21:33;;;;;;;13.13;7.68;;;11.80;99.90;;;;;;6145991;23;20013;-65
2023/06/06 04:23:59;;;;;;;9.23;7.53;;;11.80;99.90;;;;;;6145489;23;20010;-64
2023/06/06 04:26:31;;;;;;;8.65;7.70;;;11.80;99.90;;;;;;6147065;23;20066;-64
2023/06/06 04:28:58;;;;;;;11.25;7.80;;;11.90;99.90;;;;;;6146863;23;20542;-64
2023/06/06 04:31:25;;;;;;;7.80;6.93;;;11.90;99.90;;;;;;6146276;23;20025;-64
2023/06/06 04:33:54;;;;;;;8.25;7.30;;;11.90;99.90;;;;;;6147019;23;20020;-64
2023/06/06 04:36:21;;;;;;;12.00;8.40;;;12.00;99.90;;;;;;6144805;23;20010;-64
2023/06/06 04:38:48;;;;;;;9.77;7.85;;;12.00;99.90;;;;;;6145108;23;20068;-64
2023/06/06 04:41:16;;;;;;;8.95;7.20;;;12.00;99.90;;;;;;6146446;23;20001;-64
2023/06/06 04:43:42;;;;;;;10.38;7.63;;;12.10;99.90;;;;;;6146582;23;20006;-64
2023/06/06 04:46:08;;;;;;;10.52;7.70;;;12.10;99.90;;;;;;6146608;23;19998;-65
2023/06/06 04:48:33;;;;;;;10.18;7.20;;;12.20;99.90;;;;;;6146682;23;20009;-65
2023/06/06 04:50:59;;;;;;;10.50;7.40;;;12.30;99.90;;;;;;6146114;23;20012;-64
2023/06/06 04:53:28;;;;;;;9.23;6.28;;;12.30;99.90;;;;;;6146648;23;20021;-65
2023/06/06 04:55:55;;;;;;;10.02;6.88;;;12.40;99.90;;;;;;6147003;23;20015;-65
2023/06/06 04:58:21;;;;;;;7.95;6.20;;;12.50;99.90;;;;;;6146210;23;20001;-64
2023/06/06 05:00:48;;;;;;;10.00;7.25;;;12.50;99.90;;;;;;6145753;23;20017;-64
2023/06/06 05:03:19;;;;;;;12.38;8.05;;;12.60;99.90;;;;;;6147281;23;20064;-64
2023/06/06 05:05:48;;;;;;;10.57;7.10;;;12.60;99.90;;;;;;6143558;23;20056;-63
2023/06/06 05:08:14;;;;;;;13.68;7.50;;;12.70;99.90;;;;;;6144648;23;20163;-57
2023/06/06 05:10:40;;;;;;;10.82;7.30;;;12.80;99.90;;;;;;6146629;23;20033;-57
2023/06/06 05:13:05;;;;;;;9.60;7.75;;;12.80;99.90;;;;;;6146546;23;20009;-57
2023/06/06 05:15:31;;;;;;;12.13;7.40;;;12.90;99.90;;;;;;6146515;23;20050;-58
2023/06/06 05:17:56;;;;;;;11.10;7.63;;;13.00;99.90;;;;;;6146546;23;20060;-57
2023/06/06 05:20:25;;;;;;;10.93;7.70;;;13.00;99.90;;;;;;6144845;23;20064;-56
2023/06/06 05:22:51;;;;;;;10.35;7.38;;;13.10;99.90;;;;;;6145919;23;19997;-58
2023/06/06 05:25:17;;;;;;;11.00;6.80;;;13.20;99.90;;;;;;6145847;23;20012;-56
2023/06/06 05:27:43;;;;;;;14.68;7.35;;;13.30;99.90;;;;;;6146198;23;20084;-57
2023/06/06 05:30:10;;;;;;;10.30;6.90;;;13.30;99.90;;;;;;6146204;23;20006;-56
2023/06/06 05:32:35;;;;;;;16.60;7.38;;;13.40;99.90;;;;;;6146779;23;20016;-57
2023/06/06 05:35:03;;;;;;;11.65;7.47;;;13.50;99.90;;;;;;6143897;23;20013;-59
2023/06/06 05:37:29;;;;;;;9.88;7.40;;;13.70;99.90;;;;;;6144473;23;20005;-58
2023/06/06 05:39:54;;;;;;;8.32;6.38;;;13.80;99.90;;;;;;6143837;23;20304;-56
2023/06/06 05:42:22;;;;;;;8.80;7.25;;;14.00;99.90;;;;;;6146460;23;20029;-59
2023/06/06 05:44:50;;;;;;;13.27;7.63;;;14.10;99.90;;;;;;6145706;23;20017;-57
2023/06/06 05:47:16;;;;;;;8.98;6.95;;;14.30;99.90;;;;;;6145590;23;20060;-59
2023/06/06 05:49:42;;;;;;;9.57;6.00;;;14.50;99.90;;;;;;6146471;23;20002;-58
2023/06/06 05:52:07;;;;;;;9.88;6.70;;;14.70;99.90;;;;;;6143312;23;20009;-57
2023/06/06 05:54:34;;;;;;;9.02;6.43;;;14.90;99.90;;;;;;6146675;23;20025;-58
2023/06/06 05:57:00;;;;;;;10.73;6.68;;;15.10;99.90;;;;;;6146207;23;20009;-59
2023/06/06 05:59:26;;;;;;;9.57;6.18;;;15.30;99.90;;;;;;6146004;23;20010;-58
2023/06/06 06:01:52;;;;;;;7.57;6.68;;;15.40;99.90;;;;;;6146066;23;20020;-58
2023/06/06 06:04:18;;;;;;;11.93;6.82;;;15.50;99.90;;;;;;6144447;23;20005;-59
2023/06/06 06:06:47;;;;;;;9.07;6.00;;;15.70;99.90;;;;;;6146545;23;20044;-58
2023/06/06 06:09:19;;;;;;;9.32;5.22;;;15.90;99.90;;;;;;6145528;23;20538;-56
2023/06/06 06:11:44;;;;;;;8.02;5.32;;;16.00;99.90;;;;;;6146608;23;20048;-60
2023/06/06 06:14:10;;;;;;;8.98;5.47;;;16.20;99.90;;;;;;6143494;23;20009;-58
2023/06/06 06:16:35;;;;;;;7.75;5.80;;;16.40;99.90;;;;;;6146120;23;20071;-59
2023/06/06 06:19:03;;;;;;;9.02;4.97;;;16.60;99.90;;;;;;6146304;23;20017;-59
2023/06/06 06:21:29;;;;;;;8.93;4.88;;;16.70;99.90;;;;;;6144164;23;20001;-58
2023/06/06 06:23:55;;;;;;;6.82;5.07;;;16.90;99.90;;;;;;6145745;23;20008;-58
2023/06/06 06:26:20;;;;;;;7.53;4.95;;;17.00;99.90;;;;;;6146662;23;20493;-58
2023/06/06 06:28:46;;;;;;;7.90;5.00;;;17.10;99.90;;;;;;6144236;23;20013;-58
2023/06/06 06:31:12;;;;;;;9.10;5.20;;;17.30;99.90;;;;;;6146016;23;20096;-57
2023/06/06 06:33:37;;;;;;;7.63;5.15;;;17.40;99.90;;;;;;6144241;23;20048;-58
2023/06/06 06:36:04;;;;;;;6.45;4.63;;;17.50;99.90;;;;;;6146155;23;20010;-59
2023/06/06 06:38:29;;;;;;;5.90;3.97;;;17.70;99.90;;;;;;6146350;23;20013;-62
2023/06/06 06:40:55;;;;;;;6.22;4.95;;;17.90;99.90;;;;;;6144875;23;20006;-60
2023/06/06 06:43:21;;;;;;;6.70;4.10;;;18.10;99.90;;;;;;6145927;23;20002;-60
2023/06/06 06:45:46;;;;;;;9.38;5.07;;;18.30;99.90;;;;;;6145734;23;20327;-60
2023/06/06 06:48:12;;;;;;;6.18;4.95;;;18.30;99.90;;;;;;6146273;23;20012;-59
2023/06/06 06:50:37;;;;;;;6.85;4.43;;;18.30;99.90;;;;;;6146096;23;20033;-59
2023/06/06 06:53:03;;;;;;;8.13;4.45;;;18.50;99.90;;;;;;6146943;23;20001;-59
2023/06/06 06:55:29;;;;;;;6.05;4.18;;;18.60;99.90;;;;;;6147759;23;20072;-60
2023/06/06 06:57:56;;;;;;;6.53;4.90;;;18.60;99.90;;;;;;6147489;23;20019;-58
2023/06/06 07:00:23;;;;;;;7.10;4.35;;;18.80;99.90;;;;;;6147142;23;20033;-60
2023/06/06 07:02:50;;;;;;;5.93;3.90;;;18.80;99.90;;;;;;6148159;23;19998;-59
2023/06/06 07:05:16;;;;;;;5.63;3.50;;;19.10;99.90;;;;;;6147489;23;20096;-60
2023/06/06 07:07:46;;;;;;;4.97;3.70;;;19.30;99.90;;;;;;6147441;23;20013;-58
2023/06/06 07:10:14;;;;;;;6.90;3.92;;;19.50;99.90;;;;;;6148077;23;20439;-60
2023/06/06 07:12:39;;;;;;;4.15;3.67;;;19.60;99.90;;;;;;6147259;23;19997;-59
2023/06/06 07:15:08;;;;;;;5.90;4.28;;;19.70;99.90;;;;;;6145634;23;20008;-59
2023/06/06 07:17:33;;;;;;;5.85;4.13;;;19.90;99.90;;;;;;6147721;23;20004;-60
2023/06/06 07:19:59;;;;;;;6.03;3.20;;;20.10;99.90;;;;;;6147028;23;19998;-61
2023/06/06 07:22:24;;;;;;;5.60;3.38;;;20.20;99.90;;;;;;6148301;23;20009;-61
2023/06/06 07:24:50;;;;;;;4.40;3.42;;;20.30;99.90;;;;;;6146601;23;20056;-59
2023/06/06 07:27:18;;;;;;;4.47;3.47;;;20.20;99.90;;;;;;6147427;23;20009;-59
2023/06/06 07:29:44;;;;;;;5.63;3.10;;;20.30;99.90;;;;;;6147027;23;20028;-59
2023/06/06 07:32:09;;;;;;;4.32;3.08;;;20.40;99.90;;;;;;6147108;23;20450;-61
2023/06/06 07:34:35;;;;;;;4.68;3.05;;;20.60;99.90;;;;;;6146933;23;20595;-60
2023/06/06 07:37:00;;;;;;;4.00;3.13;;;20.60;99.30;;;;;;6147591;23;20034;-60
2023/06/06 07:39:26;;;;;;;3.05;2.70;;;20.70;99.50;;;;;;6146643;23;20255;-60
2023/06/06 07:41:52;;;;;;;4.45;2.55;;;20.90;99.40;;;;;;6147693;23;20002;-60
2023/06/06 07:44:18;;;;;;;3.30;2.67;;;21.10;99.10;;;;;;6145024;23;20055;-60
2023/06/06 07:46:44;;;;;;;5.43;2.78;;;21.10;99.50;;;;;;6147439;23;20430;-60
2023/06/06 07:49:10;;;;;;;4.78;2.90;;;21.30;98.50;;;;;;6145095;23;20005;-60
2023/06/06 07:51:35;;;;;;;5.15;3.03;;;21.50;98.30;;;;;;6147372;23;20113;-60
2023/06/06 07:54:01;;;;;;;4.28;2.80;;;21.50;98.80;;;;;;6147189;23;20012;-61
2023/06/06 07:56:30;;;;;;;3.67;2.67;;;21.70;97.90;;;;;;6146935;23;20033;-60
2023/06/06 07:58:56;;;;;;;4.05;3.00;;;21.70;98.10;;;;;;6147194;23;20017;-59
2023/06/06 08:01:23;;;;;;;4.40;3.22;;;21.60;97.00;;;;;;6146305;23;20476;-60
2023/06/06 08:03:54;;;;;;;5.55;3.13;;;21.90;97.80;;;;;;6146878;23;20081;-60
2023/06/06 08:06:23;;;;;;;3.55;3.20;;;22.10;97.70;;;;;;6147753;23;19998;-60
2023/06/06 08:08:48;;;;;;;4.47;2.83;;;22.40;96.70;;;;;;6146722;23;20248;-60
2023/06/06 08:11:15;;;;;;;5.05;2.88;;;22.60;96.10;;;;;;6147566;23;20051;-61
2023/06/06 08:13:41;;;;;;;3.67;2.72;;;22.60;94.10;;;;;;6146802;23;20040;-59
2023/06/06 08:16:08;;;;;;;3.85;2.80;;;22.70;95.00;;;;;;6146755;23;20335;-60
2023/06/06 08:18:33;;;;;;;4.65;3.15;;;22.80;94.00;;;;;;6146863;23;20331;-59
2023/06/06 08:20:59;;;;;;;4.32;2.53;;;22.90;93.60;;;;;;6147427;23;20005;-60
2023/06/06 08:23:25;;;;;;;3.97;3.13;;;22.80;92.30;;;;;;6144502;23;20574;-59
2023/06/06 08:25:55;;;;;;;3.70;2.75;;;22.90;93.20;;;;;;6145937;23;20076;-58
2023/06/06 08:28:28;;;;;;;5.93;2.75;;;22.80;93.20;;;;;;6146460;23;20075;-58
2023/06/06 08:30:53;;;;;;;6.55;2.60;;;23.10;92.30;;;;;;6145640;23;20045;-59
2023/06/06 08:33:19;;;;;;;6.15;2.95;;;22.90;92.60;;;;;;6147275;23;20002;-58
2023/06/06 08:35:46;;;;;;;4.05;2.53;;;23.10;91.50;;;;;;6144702;23;20533;-62
2023/06/06 08:38:12;;;;;;;4.30;3.10;;;23.10;91.80;;;;;;6146395;23;20088;-60
2023/06/06 08:40:38;;;;;;;3.97;2.85;;;23.10;90.50;;;;;;6147278;23;20370;-60
2023/06/06 08:43:05;;;;;;;2.70;2.50;;;23.30;90.90;;;;;;6146952;23;20062;-60
2023/06/06 08:45:32;;;;;;;5.28;3.13;;;23.50;90.80;;;;;;6146271;23;20009;-58
2023/06/06 08:47:58;;;;;;;4.60;3.30;;;23.70;90.90;;;;;;6146124;23;20049;-58
2023/06/06 08:50:26;;;;;;;5.28;2.55;;;23.50;89.30;;;;;;6146272;23;20009;-58
2023/06/06 08:52:51;;;;;;;3.83;3.28;;;23.50;90.40;;;;;;6144835;23;20570;-61
2023/06/06 08:55:18;;;;;;;3.33;2.20;;;23.70;90.00;;;;;;6145695;23;20012;-61
2023/06/06 08:57:46;;;;;;;5.43;2.80;;;23.70;88.30;;;;;;6146333;23;20104;-59
2023/06/06 09:00:20;;;;;;;3.83;2.97;;;23.80;88.50;;;;;;6145143;23;20077;-58
2023/06/06 09:02:47;;;;;;;3.55;2.92;;;24.00;89.80;;;;;;6146224;23;20006;-60
2023/06/06 09:05:16;;;;;;;5.45;2.95;;;24.00;85.90;;;;;;6145516;23;20005;-60
2023/06/06 09:07:42;;;;;;;6.13;3.10;;;24.10;88.60;;;;;;6146452;23;20120;-60
2023/06/06 09:10:09;;;;;;;3.00;2.78;;;24.10;86.90;;;;;;6146773;23;20025;-60
2023/06/06 09:12:40;;;;;;;6.07;3.08;;;23.90;88.20;;;;;;6145057;23;20649;-59
2023/06/06 09:15:06;;;;;;;4.65;2.70;;;24.20;86.30;;;;;;6145733;23;20778;-61
2023/06/06 09:17:38;;;;;;;2.47;2.28;;;24.20;85.80;;;;;;6145977;23;20006;-58
2023/06/06 09:20:08;;;;;;;5.32;2.63;;;24.00;84.50;;;;;;6146498;23;20001;-60
2023/06/06 09:22:38;;;;;;;8.70;2.83;;;24.10;84.90;;;;;;6144753;23;20053;-60
2023/06/06 09:25:04;;;;;;;6.22;2.47;;;24.20;85.40;;;;;;6145908;23;20009;-60
2023/06/06 09:27:30;;;;;;;2.95;2.15;;;24.30;82.60;;;;;;6146357;23;20023;-59
2023/06/06 09:29:57;;;;;;;2.95;2.28;;;24.30;81.50;;;;;;6146263;23;20604;-60
2023/06/06 09:32:29;;;;;;;2.88;2.50;;;24.20;81.60;;;;;;6143894;23;20021;-60
2023/06/06 09:35:05;;;;;;;6.20;2.83;;;24.40;82.70;;;;;;6146049;23;20035;-60
2023/06/06 09:37:31;;;;;;;5.50;2.20;;;24.50;80.60;;;;;;6146680;23;19998;-59
2023/06/06 09:40:11;;;;;;;4.88;2.65;;;24.30;81.70;;;;;;6143361;23;20017;-59
2023/06/06 09:42:38;;;;;;;2.00;1.80;;;24.50;80.50;;;;;;6146730;23;20001;-59
2023/06/06 09:45:14;;;;;;;2.25;2.05;;;24.60;81.80;;;;;;6145821;23;19997;-60
2023/06/06 09:47:44;;;;;;;4.32;2.70;;;24.80;82.40;;;;;;6146261;23;20288;-59
2023/06/06 09:50:10;;;;;;;4.82;2.95;;;24.90;82.80;;;;;;6146079;23;20457;-60
2023/06/06 09:52:37;;;;;;;3.35;2.60;;;24.70;79.90;;;;;;6143903;23;20346;-60
2023/06/06 09:55:07;;;;;;;3.20;2.15;;;24.60;81.60;;;;;;6145467;23;20005;-60
2023/06/06 09:57:37;;;;;;;8.15;2.42;;;24.60;81.10;;;;;;6147010;23;19997;-57
2023/06/06 10:00:14;;;;;;;3.08;2.10;;;24.60;82.20;;;;;;6145541;23;20063;-57
2023/06/06 10:02:45;;;;;;;3.60;2.28;;;24.70;78.80;;;;;;6145968;23;20497;-58
2023/06/06 10:05:14;;;;;;;3.00;2.78;;;24.70;80.40;;;;;;6145470;23;20346;-58
2023/06/06 10:07:45;;;;;;;2.60;2.25;;;24.40;77.50;;;;;;6145935;23;20084;-59
2023/06/06 10:10:15;;;;;;;3.22;2.22;;;24.40;78.70;;;;;;6145511;23;20001;-57
2023/06/06 10:12:43;;;;;;;6.85;2.38;;;24.50;80.60;;;;;;6146003;23;20002;-59
2023/06/06 10:15:10;;;;;;;2.92;2.22;;;24.50;80.30;;;;;;6144830;23;20056;-57
2023/06/06 10:17:37;;;;;;;6.57;2.47;;;24.50;77.70;;;;;;6145854;23;20076;-59
2023/06/06 10:20:06;;;;;;;3.78;2.55;;;24.40;78.20;;;;;;6145151;23;20006;-59
2023/06/06 10:22:35;;;;;;;3.25;1.77;;;24.40;78.50;;;;;;6146038;23;20004;-60
2023/06/06 10:25:08;;;;;;;2.88;2.20;;;24.40;79.20;;;;;;6145360;23;20005;-60
2023/06/06 10:27:56;;;;;;;3.08;2.47;;;24.40;79.30;;;;;;6147019;23;20382;-60
2023/06/06 10:30:44;;;;;;;3.30;2.30;;;24.40;78.60;;;;;;6147975;23;20024;-57
2023/06/06 10:33:28;;;;;;;3.13;2.65;;;24.50;77.00;;;;;;6145774;23;19998;-57
2023/06/06 10:36:02;;;;;;;4.40;2.63;;;24.30;78.10;;;;;;6147163;23;20001;-58
2023/06/06 10:38:27;;;;;;;3.33;2.10;;;24.30;77.90;;;;;;6147606;23;20006;-59
2023/06/06 10:40:55;;;;;;;3.80;2.53;;;24.30;78.90;;;;;;6146338;23;20005;-59
2023/06/06 10:43:32;;;;;;;5.32;2.30;;;24.20;78.00;;;;;;6148360;23;20048;-59
2023/06/06 10:45:59;;;;;;;2.10;1.90;;;24.30;78.40;;;;;;6147321;23;20438;-59
2023/06/06 10:48:45;;;;;;;2.67;2.30;;;24.10;77.20;;;;;;6146653;23;20044;-60
2023/06/06 10:51:22;;;;;;;;;;;24.10;79.90;;;;;;6147569;23;20033;-60
2023/06/06 10:54:15;;;;;;;6.00;2.13;;;24.00;78.10;;;;;;6147356;23;19911;-59
2023/06/06 10:56:54;;;;;;;2.35;2.10;;;24.10;78.60;;;;;;6147657;23;20020;-59
2023/06/06 10:59:27;;;;;;;4.18;2.30;;;24.00;77.90;;;;;;6148219;23;20037;-59
2023/06/06 11:01:54;;;;;;;7.20;2.85;;;24.10;81.40;;;;;;6146907;23;20005;-59
2023/06/06 11:04:25;;;;;;;8.15;2.63;;;24.10;78.60;;;;;;6147986;23;20002;-61
2023/06/06 11:06:52;;;;;;;3.80;2.45;;;24.20;79.00;;;;;;6147886;23;20002;-60
2023/06/06 11:09:22;;;;;;;5.28;2.72;;;24.10;78.10;;;;;;6144223;23;20017;-60
2023/06/06 11:12:07;;;;;;;5.72;2.67;;;24.10;78.00;;;;;;6147442;23;20029;-64
2023/06/06 11:14:57;;;;;;;2.80;2.20;;;24.20;77.20;;;;;;6146878;23;20014;-64
2023/06/06 11:17:29;;;;;;;3.78;2.00;;;24.20;79.10;;;;;;6147619;23;20321;-67
2023/06/06 11:19:56;;;;;;;5.35;2.70;;;24.30;78.00;;;;;;6146267;23;20056;-67
2023/06/06 11:22:24;;;;;;;4.68;2.75;;;24.40;78.40;;;;;;6146135;23;20006;-64
2023/06/06 11:24:50;;;;;;;3.78;2.55;;;24.10;77.70;;;;;;6147179;23;20438;-61
2023/06/06 11:27:16;;;;;;;5.38;2.15;;;24.20;79.90;;;;;;6146479;23;20009;-64
2023/06/06 11:29:43;;;;;;;3.40;2.20;;;24.30;78.50;;;;;;6147118;23;20005;-65
2023/06/06 11:32:13;;;;;;;5.53;2.15;;;24.30;77.90;;;;;;6144739;23;20024;-66
2023/06/06 11:34:39;;;;;;;3.38;2.33;;;24.30;77.50;;;;;;6147168;23;20005;-64
2023/06/06 11:37:06;;;;;;;2.80;2.60;;;24.30;76.20;;;;;;6148123;23;20116;-65
2023/06/06 11:39:32;;;;;;;4.72;2.97;;;24.30;76.50;;;;;;6145475;23;20001;-64
2023/06/06 11:41:58;;;;;;;4.82;2.78;;;24.20;76.00;;;;;;6146996;23;20009;-64
2023/06/06 11:44:37;;;;;;;3.80;2.42;;;24.40;77.80;;;;;;6147329;23;20310;-65
2023/06/06 11:47:08;;;;;;;3.05;2.00;;;24.60;76.90;;;;;;6146818;23;20413;-61
2023/06/06 11:49:45;;;;;;;2.70;2.25;;;24.40;75.40;;;;;;6147305;23;20088;-63
2023/06/06 11:52:11;;;;;;;3.63;2.00;;;24.50;76.30;;;;;;6147180;23;20457;-62
2023/06/06 11:54:38;;;;;;;3.97;2.30;;;24.50;74.90;;;;;;6147273;23;20005;-63
2023/06/06 11:57:07;;;;;;;5.93;2.30;;;24.40;74.90;;;;;;6147270;23;20389;-61
2023/06/06 11:59:36;;;;;;;2.08;1.88;;;24.40;74.70;;;;;;6147659;23;20010;-64
2023/06/06 12:02:01;;;;;;;2.75;2.35;;;24.50;75.80;;;;;;6146502;23;20093;-62
2023/06/06 12:04:28;;;;;;;3.03;1.85;;;24.50;75.70;;;;;;6146833;23;20113;-60
2023/06/06 12:07:05;;;;;;;2.55;2.35;;;24.60;74.80;;;;;;6145859;23;20039;-62
2023/06/06 12:09:32;;;;;;;4.35;2.17;;;24.80;75.30;;;;;;6147158;23;20009;-57
2023/06/06 12:12:00;;;;;;;2.83;2.10;;;24.90;74.90;;;;;;6148194;23;20010;-62
2023/06/06 12:14:30;;;;;;;6.00;2.97;;;24.90;74.10;;;;;;6146703;23;20083;-61
2023/06/06 12:17:10;;;;;;;3.00;2.28;;;25.10;76.60;;;;;;6147403;23;20080;-62
2023/06/06 12:19:36;;;;;;;3.80;2.35;;;25.20;75.80;;;;;;6147155;23;20017;-61
2023/06/06 12:22:02;;;;;;;2.45;2.17;;;25.00;75.60;;;;;;6144510;23;20447;-62
2023/06/06 12:24:30;;;;;;;5.00;2.33;;;24.70;75.20;;;;;;6146502;23;20010;-62
2023/06/06 12:27:00;;;;;;;3.08;2.20;;;24.50;76.30;;;;;;6147140;23;20001;-62
2023/06/06 12:29:30;;;;;;;4.78;2.30;;;24.40;76.10;;;;;;6144431;23;20013;-62
2023/06/06 12:32:16;;;;;;;3.40;2.38;;;24.50;75.30;;;;;;6146232;23;20021;-60
2023/06/06 12:35:10;;;;;;;5.18;3.00;;;24.60;76.20;;;;;;6146862;23;20010;-63
2023/06/06 12:37:44;;;;;;;2.97;2.40;;;24.70;76.00;;;;;;6146308;23;20022;-64
2023/06/06 12:40:23;;;;;;;4.60;2.20;;;25.00;74.80;;;;;;6145223;23;20029;-63
2023/06/06 12:42:56;;;;;;;3.15;2.25;;;25.30;76.40;;;;;;6145096;23;20005;-63
2023/06/06 12:45:23;;;;;;;5.60;2.63;;;25.60;76.10;;;;;;6146158;23;20473;-62
2023/06/06 12:47:54;;;;;;;3.85;2.22;;;25.90;74.50;;;;;;6145418;23;20072;-64
2023/06/06 12:50:20;;;;;;;6.18;2.85;;;25.90;73.40;;;;;;6147048;23;20001;-63